KBTL

W K Kellogg Airport

Battle Creek, Michigan, USA
METAR KBTL 201153Z 22009KT 10SM CLR 00/M04 A2985 RMK AO2 SLP117 T00001039 10022 20000 51018
Observed Flight Rules
Jan-20 @ 11:53 UTC (an hour ago) Visual Flight Rules
Wind Visibility Clouds
220° at 9 knots 10 miles
  • Clear skies
Temperatures Readings
Current 0°C / 32°F
Dewpoint -4°C / 25°F
Humidity 75%
Altimeter 29.85" Hg
Pressure 1011.7 hPa
Elevation 290
METAR KBTL 201153Z 22009KT 10SM CLR 00/M04 A2985 RMK AO2 SLP117 T00001039 10022 20000 51018
Observed Flight Rules
Jan-20 @ 11:53 UTC
(an hour ago)
VFR
Wind Visibility
220° at 9 knots 10 miles
Clouds
  • Clear skies
Temperature Dewpoint
0°C / 32°F -4°C / 25°F
Humidity Altimeter Pressure
75% 29.85" Hg 1011.7 hPa